Time;durP1;ratioP1;P1;durP2;ratioP2;P2;SDS_P1;SDS_P2;PMS_P1;PMS_P2;Temp;Humidity;BMP_temperature;BMP_pressure;BME280_temperature;BME280_humidity;BME280_pressure;Samples;Min_cycle;Max_cycle;Signal;HPM_P1;HPM_P2
2023/04/22 00:04:46;;;;;;;21.98;9.20;;;;;;;8.20;100.00;94443.72;10421804;28;20029;-69
2023/04/22 00:09:46;;;;;;;20.00;9.90;;;;;;;8.06;100.00;94444.50;10420962;28;20037;-70
2023/04/22 00:14:47;;;;;;;18.45;10.40;;;;;;;8.07;100.00;94444.22;10421650;28;20344;-69
2023/04/22 00:19:47;;;;;;;15.70;8.88;;;;;;;8.02;100.00;94438.84;10421124;28;20530;-68
2023/04/22 00:24:48;;;;;;;12.48;7.60;;;;;;;8.02;100.00;94433.50;10403840;28;20102;-69
2023/04/22 00:29:48;;;;;;;13.63;7.97;;;;;;;7.95;100.00;94432.97;10420960;28;20094;-69
2023/04/22 00:34:49;;;;;;;11.75;6.43;;;;;;;7.98;100.00;94435.91;10420675;28;20522;-69
2023/04/22 00:39:49;;;;;;;10.30;7.07;;;;;;;7.96;100.00;94442.59;10420873;28;20130;-69
2023/04/22 00:44:51;;;;;;;12.30;6.82;;;;;;;8.02;100.00;94438.84;10402624;28;20086;-69
2023/04/22 00:49:52;;;;;;;9.82;6.30;;;;;;;8.17;100.00;94438.09;10419888;28;20036;-68
2023/04/22 00:54:53;;;;;;;9.82;6.80;;;;;;;8.23;100.00;94445.06;10420727;28;20705;-69
2023/04/22 00:59:54;;;;;;;10.70;6.43;;;;;;;8.18;100.00;94445.06;10420557;28;20570;-69
2023/04/22 01:04:54;;;;;;;13.65;8.02;;;;;;;8.09;100.00;94450.09;10420569;28;20504;-68
2023/04/22 01:09:56;;;;;;;14.00;6.97;;;;;;;7.97;100.00;94450.38;10402724;28;20440;-69
2023/04/22 01:14:56;;;;;;;15.35;7.00;;;;;;;7.92;100.00;94461.03;10420066;28;20029;-68
2023/04/22 01:19:58;;;;;;;14.25;7.57;;;;;;;7.81;100.00;94462.88;10420176;28;20475;-68
2023/04/22 01:24:58;;;;;;;12.85;7.18;;;;;;;7.75;100.00;94455.91;10419940;28;20029;-68
2023/04/22 01:29:59;;;;;;;12.68;6.78;;;;;;;7.65;100.00;94456.66;10419822;28;20025;-68
2023/04/22 01:34:59;;;;;;;11.32;7.00;;;;;;;7.53;100.00;94454.22;10419823;28;20419;-69
2023/04/22 01:40:01;;;;;;;13.13;6.90;;;;;;;7.36;100.00;94448.25;10420043;28;20373;-68
2023/04/22 01:45:01;;;;;;;15.43;8.07;;;;;;;7.19;100.00;94457.25;10420132;28;20479;-69
2023/04/22 01:50:02;;;;;;;15.07;7.82;;;;;;;7.22;100.00;94447.13;10402206;28;20021;-69
2023/04/22 01:55:02;;;;;;;17.42;9.93;;;;;;;7.11;100.00;94452.38;10419390;28;20027;-68
2023/04/22 02:00:05;;;;;;;16.55;9.93;;;;;;;7.15;100.00;94455.34;10422851;28;20098;-68
2023/04/22 02:05:06;;;;;;;17.08;9.90;;;;;;;7.05;100.00;94453.44;10427878;28;20028;-69
2023/04/22 02:10:08;;;;;;;18.15;10.90;;;;;;;7.15;100.00;94455.34;10426344;28;20043;-68
2023/04/22 02:15:09;;;;;;;25.17;12.57;;;;;;;7.05;100.00;94464.13;10426199;28;20037;-69
2023/04/22 02:20:10;;;;;;;26.60;11.65;;;;;;;7.22;100.00;94452.47;10425653;28;20032;-68
2023/04/22 02:25:12;;;;;;;17.58;10.70;;;;;;;7.42;100.00;94459.78;10426025;28;20032;-68
2023/04/22 02:30:13;;;;;;;15.93;9.40;;;;;;;7.51;100.00;94455.56;10437935;28;20539;-68
2023/04/22 02:35:13;;;;;;;17.75;10.77;;;;;;;7.51;100.00;94455.56;10425113;28;20102;-68
2023/04/22 02:40:14;;;;;;;18.02;9.52;;;;;;;7.44;100.00;94457.66;10425428;28;20039;-68
2023/04/22 02:45:14;;;;;;;15.65;8.90;;;;;;;7.50;100.00;94459.28;10424965;28;20099;-69
2023/04/22 02:50:15;;;;;;;16.73;9.52;;;;;;;7.50;100.00;94464.63;10406840;28;20317;-68
2023/04/22 02:55:15;;;;;;;13.38;9.10;;;;;;;7.31;100.00;94470.41;10424481;28;20388;-69
2023/04/22 03:00:16;;;;;;;17.90;9.80;;;;;;;7.33;100.00;94476.31;10424063;28;20072;-67
2023/04/22 03:05:16;;;;;;;17.85;9.48;;;;;;;7.30;100.00;94474.16;10423763;28;20043;-68
2023/04/22 03:10:17;;;;;;;18.90;10.40;;;;;;;7.22;100.00;94469.28;10422631;28;20032;-69
2023/04/22 03:15:17;;;;;;;19.27;9.70;;;;;;;7.14;100.00;94473.22;10423619;28;20363;-68
2023/04/22 03:20:19;;;;;;;16.10;9.35;;;;;;;7.16;100.00;94471.13;10422998;28;20796;-69
2023/04/22 03:25:19;;;;;;;19.55;10.27;;;;;;;7.14;100.00;94475.13;10420111;28;20030;-69
2023/04/22 03:30:20;;;;;;;20.98;11.18;;;;;;;7.05;100.00;94485.50;10419441;28;20024;-68
2023/04/22 03:35:21;;;;;;;16.60;11.32;;;;;;;7.11;100.00;94489.78;10420058;28;20712;-69
2023/04/22 03:40:21;;;;;;;12.18;8.25;;;;;;;7.11;100.00;94489.00;10402313;28;20045;-70
2023/04/22 03:45:22;;;;;;;23.48;9.10;;;;;;;7.03;100.00;94500.16;10401568;28;20025;-68
2023/04/22 03:50:22;;;;;;;16.45;8.00;;;;;;;6.92;100.00;94496.59;10419875;28;20395;-68
2023/04/22 03:55:23;;;;;;;14.23;8.52;;;;;;;6.83;100.00;94498.94;10421905;28;20037;-69
2023/04/22 04:00:23;;;;;;;13.73;7.53;;;;;;;6.76;100.00;94509.84;10422248;28;20426;-69
2023/04/22 04:05:24;;;;;;;15.55;8.63;;;;;;;6.76;100.00;94501.81;10421007;28;20091;-69
2023/04/22 04:10:24;;;;;;;11.45;7.53;;;;;;;6.70;100.00;94504.69;10422412;28;20040;-69
2023/04/22 04:15:25;;;;;;;11.70;7.70;;;;;;;6.58;100.00;94524.38;10419991;28;20039;-69
2023/04/22 04:20:26;;;;;;;12.02;8.20;;;;;;;6.63;100.00;94515.63;10421851;28;20029;-69
2023/04/22 04:25:28;;;;;;;10.65;7.22;;;;;;;6.79;100.00;94513.88;10421695;28;20037;-69
2023/04/22 04:30:28;;;;;;;12.05;7.25;;;;;;;6.88;100.00;94512.34;10411535;28;20037;-69
2023/04/22 04:35:29;;;;;;;14.43;8.75;;;;;;;6.88;100.00;94523.03;10424835;28;20471;-69
2023/04/22 04:40:30;;;;;;;14.90;7.85;;;;;;;7.19;100.00;94531.28;10404230;28;20072;-69
2023/04/22 04:45:31;;;;;;;11.52;8.02;;;;;;;7.51;100.00;94535.78;10424881;28;20029;-68
2023/04/22 04:50:32;;;;;;;12.82;7.72;;;;;;;7.76;100.00;94545.81;10403895;28;20094;-68
2023/04/22 04:55:32;;;;;;;12.25;7.30;;;;;;;8.04;100.00;94549.94;10419087;28;20036;-68
2023/04/22 05:00:33;;;;;;;26.15;8.93;;;;;;;8.60;100.00;94545.84;10404148;28;20045;-68
2023/04/22 05:05:33;;;;;;;15.15;8.20;;;;;;;9.49;100.00;94545.59;10420102;28;20025;-69
2023/04/22 05:10:34;;;;;;;11.77;7.15;;;;;;;10.28;100.00;94555.84;10419497;28;20060;-69
2023/04/22 05:15:34;;;;;;;18.33;7.20;;;;;;;10.94;100.00;94552.00;10416160;28;20549;-69
2023/04/22 05:20:35;;;;;;;11.98;7.20;;;;;;;11.54;100.00;94559.06;10418926;28;20036;-70
2023/04/22 05:25:36;;;;;;;11.00;7.00;;;;;;;12.16;100.00;94550.38;10420134;28;20033;-71
2023/04/22 05:30:37;;;;;;;9.77;6.35;;;;;;;12.60;100.00;94549.28;10399808;28;20044;-69
2023/04/22 05:35:37;;;;;;;11.23;7.28;;;;;;;13.04;100.00;94554.63;10409503;28;20215;-69
2023/04/22 05:40:39;;;;;;;11.98;7.93;;;;;;;13.40;100.00;94552.19;10415654;28;20030;-70
2023/04/22 05:45:40;;;;;;;15.55;7.88;;;;;;;13.27;100.00;94559.13;10417546;28;20443;-70
2023/04/22 05:50:40;;;;;;;11.77;8.40;;;;;;;13.08;100.00;94555.63;10406761;28;20122;-71
2023/04/22 05:55:41;;;;;;;11.40;7.55;;;;;;;12.68;100.00;94555.13;10394028;28;20870;-70
2023/04/22 06:00:42;;;;;;;16.40;8.60;;;;;;;13.43;100.00;94546.19;10414102;28;20517;-73
2023/04/22 06:05:43;;;;;;;13.03;8.43;;;;;;;14.39;100.00;94548.50;10408045;28;20424;-70
2023/04/22 06:10:43;;;;;;;13.52;7.90;;;;;;;15.94;95.86;94537.66;10394361;28;20275;-69
2023/04/22 06:15:43;;;;;;;16.98;9.65;;;;;;;16.53;84.01;94538.16;10413449;28;20037;-72
2023/04/22 06:20:44;;;;;;;15.07;9.10;;;;;;;17.43;75.01;94536.03;10419096;28;20040;-70
2023/04/22 06:25:46;;;;;;;18.13;8.83;;;;;;;17.24;75.03;94542.56;10418725;28;20274;-74
2023/04/22 06:30:46;;;;;;;13.70;7.80;;;;;;;18.28;68.15;94550.88;10398221;28;20562;-79
2023/04/22 06:35:47;;;;;;;11.25;6.38;;;;;;;19.43;62.14;94549.81;10406075;28;20528;-74
2023/04/22 06:40:47;;;;;;;17.45;8.02;;;;;;;19.96;55.15;94549.38;10409622;28;20082;-70
2023/04/22 06:45:48;;;;;;;14.27;6.43;;;;;;;20.67;52.33;94544.66;10412012;28;20031;-76
2023/04/22 06:50:48;;;;;;;11.18;6.15;;;;;;;20.92;51.55;94539.19;10408894;28;21034;-76
2023/04/22 06:55:49;;;;;;;11.63;6.40;;;;;;;21.08;49.24;94545.53;10408348;28;20040;-71
2023/04/22 07:00:50;;;;;;;10.05;5.30;;;;;;;20.76;49.22;94536.34;10383092;28;20797;-71
2023/04/22 07:05:50;;;;;;;12.07;6.10;;;;;;;21.30;49.64;94540.69;10404687;28;20032;-69
2023/04/22 07:10:51;;;;;;;11.30;5.07;;;;;;;22.34;46.42;94535.34;10409456;28;20088;-72
2023/04/22 07:15:52;;;;;;;9.98;6.53;;;;;;;22.52;46.68;94533.03;10385394;28;20690;-75
2023/04/22 07:20:53;;;;;;;10.35;5.50;;;;;;;23.42;44.49;94541.69;10397205;28;20834;-74
2023/04/22 07:25:53;;;;;;;7.57;5.32;;;;;;;23.84;41.71;94536.25;10418992;28;20025;-77
2023/04/22 07:30:54;;;;;;;10.00;5.68;;;;;;;24.62;40.39;94537.25;10417653;28;20078;-77
2023/04/22 07:35:54;;;;;;;7.32;5.60;;;;;;;23.11;42.09;94538.66;10394760;28;20045;-76
2023/04/22 07:40:55;;;;;;;9.32;5.43;;;;;;;22.95;42.37;94538.69;10419943;28;20013;-76
2023/04/22 07:45:56;;;;;;;6.13;4.28;;;;;;;24.55;40.67;94535.16;10420174;28;20013;-77
2023/04/22 07:50:56;;;;;;;5.93;2.63;;;;;;;24.47;40.06;94531.50;10417464;28;20495;-77
2023/04/22 07:55:56;;;;;;;7.72;3.42;;;;;;;25.52;38.51;94527.53;10417578;28;20058;-77
2023/04/22 08:00:57;;;;;;;6.17;3.20;;;;;;;25.93;37.69;94513.84;10417387;28;20031;-77
2023/04/22 08:05:57;;;;;;;9.57;3.77;;;;;;;26.43;35.20;94514.34;10416555;28;20036;-78
2023/04/22 08:10:58;;;;;;;11.60;3.78;;;;;;;26.41;35.98;94516.69;10415804;28;20045;-77
2023/04/22 08:16:06;;;;;;;6.32;4.00;;;;;;;25.64;35.82;94516.28;10415800;28;20044;-73
2023/04/22 08:21:06;;;;;;;8.25;4.18;;;;;;;27.05;36.01;94507.34;10401110;28;20068;-77
2023/04/22 08:26:07;;;;;;;12.38;5.05;;;;;;;27.27;35.49;94507.47;10416604;28;20158;-78
2023/04/22 08:31:09;;;;;;;7.47;4.80;;;;;;;26.50;36.97;94504.56;10399874;28;20424;-76
2023/04/22 08:36:10;;;;;;;10.27;4.72;;;;;;;27.12;34.16;94496.34;10416977;28;20053;-77
2023/04/22 08:41:11;;;;;;;14.00;4.40;;;;;;;28.03;32.62;94491.22;10415565;28;20075;-78
2023/04/22 08:46:14;;;;;;;12.00;4.75;;;;;;;28.24;32.25;94476.63;10416786;28;20099;-78
2023/04/22 08:51:16;;;;;;;14.73;4.75;;;;;;;27.22;34.71;94472.75;10415341;28;20025;-77
2023/04/22 08:56:16;;;;;;;10.85;5.32;;;;;;;24.25;36.31;94475.41;10414466;28;20060;-77
2023/04/22 09:01:17;;;;;;;12.73;5.47;;;;;;;23.34;37.53;94470.22;10416760;28;20035;-78
2023/04/22 09:06:19;;;;;;;11.18;6.47;;;;;;;24.80;37.05;94466.09;10414678;28;20106;-78
2023/04/22 09:11:20;;;;;;;6.30;4.43;;;;;;;26.01;35.67;94463.22;10434361;28;20514;-78
2023/04/22 09:16:21;;;;;;;9.52;3.88;;;;;;;25.29;34.34;94456.88;10424406;28;20100;-78
2023/04/22 09:21:26;;;;;;;5.78;3.40;;;;;;;23.41;37.74;94468.78;10424677;28;20081;-78
2023/04/22 09:26:27;;;;;;;9.15;4.35;;;;;;;25.59;34.48;94453.31;10402688;28;20016;-78
2023/04/22 09:31:27;;;;;;;11.50;3.65;;;;;;;23.89;37.54;94442.66;10423802;28;20043;-78
2023/04/22 09:36:29;;;;;;;10.15;3.80;;;;;;;23.96;36.53;94444.75;10422734;28;20419;-77
2023/04/22 09:41:31;;;;;;;9.02;4.65;;;;;;;23.92;37.34;94443.09;10423672;28;20448;-78
2023/04/22 09:46:33;;;;;;;6.50;3.20;;;;;;;25.58;34.25;94441.53;10423916;28;20058;-79
2023/04/22 09:51:39;;;;;;;9.57;2.92;;;;;;;28.43;31.71;94434.78;10421982;28;20395;-76
2023/04/22 09:56:50;;;;;;;4.25;2.40;;;;;;;-146.07;100.00;70291.31;10421529;28;20021;-78
2023/04/22 10:02:05;;;;;;;5.88;2.65;;;;;;;-146.07;100.00;70291.31;10393346;28;20039;-77
2023/04/22 10:07:06;;;;;;;5.90;1.75;;;;;;;-146.07;100.00;70291.31;10404383;28;20449;-77
2023/04/22 10:12:06;;;;;;;6.20;1.60;;;;;;;-146.07;100.00;70291.31;10439968;28;20094;-76
2023/04/22 10:17:08;;;;;;;3.03;1.10;;;;;;;-146.07;100.00;70291.31;10404219;28;20267;-78
2023/04/22 10:22:09;;;;;;;6.40;1.30;;;;;;;-146.07;100.00;70291.31;10403295;28;20414;-76
2023/04/22 10:27:10;;;;;;;2.38;1.02;;;;;;;-146.07;100.00;70291.31;10420609;28;20035;-77
2023/04/22 10:32:16;;;;;;;2.55;1.00;;;;;;;-146.07;100.00;70291.31;10421372;28;20044;-78
2023/04/22 10:37:18;;;;;;;6.28;0.90;;;;;;;-146.07;100.00;70291.31;10417907;28;20053;-76
2023/04/22 10:42:20;;;;;;;5.63;1.13;;;;;;;-146.07;100.00;70291.31;10402790;28;20429;-77
2023/04/22 10:47:32;;;;;;;1.48;1.00;;;;;;;-146.07;100.00;70291.31;10422702;28;20524;-77
2023/04/22 10:52:33;;;;;;;3.90;1.27;;;;;;;-146.07;100.00;70291.31;10417025;28;20044;-76
2023/04/22 10:57:38;;;;;;;3.78;1.30;;;;;;;-146.07;100.00;70291.31;10418972;28;20029;-76
2023/04/22 11:02:40;;;;;;;4.90;1.50;;;;;;;-146.07;100.00;70291.31;10417996;28;20023;-77
2023/04/22 11:07:41;;;;;;;6.40;1.70;;;;;;;-146.07;100.00;70291.31;10404823;28;20027;-77
2023/04/22 11:12:43;;;;;;;4.35;1.20;;;;;;;-146.07;100.00;70291.31;10420605;28;21045;-77
2023/04/22 11:17:46;;;;;;;3.40;1.15;;;;;;;-146.07;100.00;70291.31;10418487;28;20021;-76
2023/04/22 11:22:52;;;;;;;3.70;1.45;;;;;;;28.43;31.71;94434.78;10418978;28;20025;-76
2023/04/22 11:27:54;;;;;;;3.25;1.33;;;;;;;23.22;32.38;94423.78;10418969;28;20075;-76
2023/04/22 11:32:57;;;;;;;3.05;1.33;;;;;;;22.28;34.27;94437.34;10419097;28;20025;-75
2023/04/22 11:38:07;;;;;;;3.15;1.20;;;;;;;21.26;36.18;94434.00;10418454;28;20048;-78
2023/04/22 11:43:08;;;;;;;4.35;0.80;;;;;;;20.73;37.73;94436.00;10414874;28;20029;-76
2023/04/22 11:48:10;;;;;;;3.97;1.42;;;;;;;19.89;39.26;94446.28;10391209;28;20028;-76
2023/04/22 11:53:17;;;;;;;3.50;1.33;;;;;;;19.51;39.41;94454.69;10416813;28;20858;-76
2023/04/22 11:58:22;;;;;;;4.53;1.40;;;;;;;18.89;41.34;94463.44;10418223;28;20116;-77
2023/04/22 12:03:28;;;;;;;2.47;1.58;;;;;;;18.49;42.05;94472.03;10415962;28;20017;-76
2023/04/22 12:08:35;;;;;;;5.45;1.70;;;;;;;18.18;44.08;94470.44;10386437;28;20448;-76
2023/04/22 12:13:35;;;;;;;2.73;1.47;;;;;;;18.13;45.03;94475.25;10415199;28;20491;-71
2023/04/22 12:18:54;;;;;;;6.15;1.73;;;;;;;17.83;51.89;94470.53;10415659;28;20021;-70
2023/04/22 12:23:57;;;;;;;3.67;1.80;;;;;;;17.80;50.16;94475.84;10386647;28;20036;-71
2023/04/22 12:28:59;;;;;;;5.47;1.90;;;;;;;17.62;49.66;94475.88;10396163;28;20036;-71
2023/04/22 12:34:00;;;;;;;5.63;1.52;;;;;;;17.79;47.25;94474.22;10387482;28;20146;-72
2023/04/22 12:39:01;;;;;;;3.28;1.35;;;;;;;17.69;52.64;94473.47;10415272;28;20691;-72
2023/04/22 12:44:01;;;;;;;2.50;2.10;;;;;;;17.75;54.08;94477.59;10399872;28;20385;-71
2023/04/22 12:49:02;;;;;;;5.05;2.92;;;;;;;17.68;52.27;94477.31;10415788;28;20055;-71
2023/04/22 12:54:03;;;;;;;4.25;2.67;;;;;;;17.32;53.70;94480.44;10385642;28;20021;-71
2023/04/22 12:59:03;;;;;;;10.55;3.50;;;;;;;17.46;55.32;94475.63;10414509;28;20114;-72
2023/04/22 13:04:04;;;;;;;8.82;2.70;;;;;;;17.53;59.77;94473.19;10415080;28;20029;-71
2023/04/22 13:09:05;;;;;;;4.60;1.98;;;;;;;17.21;56.25;94471.81;10414156;28;21055;-71
2023/04/22 13:14:06;;;;;;;1.92;1.70;;;;;;;16.91;57.94;94471.66;10414037;28;20641;-70
2023/04/22 13:19:06;;;;;;;7.82;2.75;;;;;;;16.77;56.79;94468.28;10414520;28;20025;-72
2023/04/22 13:24:07;;;;;;;2.15;1.65;;;;;;;16.61;57.63;94460.63;10413879;28;20029;-71
2023/04/22 13:29:12;;;;;;;3.90;1.75;;;;;;;16.68;58.79;94460.94;10395614;28;20854;-71
2023/04/22 13:34:16;;;;;;;3.03;1.60;;;;;;;16.74;58.90;94461.59;10412187;28;20198;-71
2023/04/22 13:39:16;;;;;;;3.80;2.42;;;;;;;16.42;62.08;94469.06;10412741;28;20033;-71
2023/04/22 13:44:17;;;;;;;3.47;1.50;;;;;;;16.35;61.00;94471.44;10413697;28;20037;-72
2023/04/22 13:49:17;;;;;;;2.92;1.80;;;;;;;16.26;54.98;94463.28;10413385;28;20523;-71
2023/04/22 13:54:18;;;;;;;9.10;2.25;;;;;;;16.26;55.16;94470.63;10416110;28;20357;-72
2023/04/22 13:59:18;;;;;;;2.28;1.95;;;;;;;16.27;51.86;94466.78;10419234;28;20032;-72
2023/04/22 14:04:19;;;;;;;4.22;1.80;;;;;;;16.43;54.87;94465.22;10420541;28;20391;-72
2023/04/22 14:09:23;;;;;;;2.03;1.80;;;;;;;16.40;49.28;94455.03;10411427;28;20796;-72
2023/04/22 14:14:23;;;;;;;2.83;1.83;;;;;;;16.42;46.81;94463.63;10419562;28;20472;-72
2023/04/22 14:19:24;;;;;;;3.33;1.98;;;;;;;16.44;50.17;94458.69;10420305;28;20029;-71
2023/04/22 14:24:25;;;;;;;3.90;1.52;;;;;;;16.35;49.79;94458.69;10420931;28;20029;-71
2023/04/22 14:29:28;;;;;;;3.72;1.80;;;;;;;16.30;48.89;94452.59;10419069;28;20028;-72
2023/04/22 14:34:29;;;;;;;4.07;2.78;;;;;;;16.30;47.77;94449.88;10419823;28;20033;-71
2023/04/22 14:39:30;;;;;;;5.80;1.60;;;;;;;16.17;47.91;94452.44;10418997;28;20032;-71
2023/04/22 14:44:30;;;;;;;3.83;1.60;;;;;;;16.16;49.41;94458.16;10419839;28;20518;-70
2023/04/22 14:49:31;;;;;;;3.35;1.92;;;;;;;16.00;51.54;94461.28;10419852;28;20290;-69
2023/04/22 14:54:31;;;;;;;5.18;2.03;;;;;;;16.26;50.34;94459.78;10419971;28;20083;-71
2023/04/22 14:59:32;;;;;;;6.72;2.10;;;;;;;16.22;48.28;94457.69;10418717;28;20079;-70
2023/04/22 15:04:33;;;;;;;2.97;1.80;;;;;;;16.29;46.79;94456.44;10418803;28;20036;-71
2023/04/22 15:09:33;;;;;;;3.47;2.10;;;;;;;16.33;47.75;94455.47;10419219;28;20033;-71
2023/04/22 15:14:35;;;;;;;6.00;2.00;;;;;;;16.60;49.37;94444.66;10417506;28;20052;-71
2023/04/22 15:19:35;;;;;;;10.50;2.28;;;;;;;16.43;50.25;94453.59;10417787;28;20358;-71
2023/04/22 15:24:36;;;;;;;6.20;2.08;;;;;;;16.74;50.89;94456.16;10416933;28;20037;-70
2023/04/22 15:29:36;;;;;;;4.80;2.50;;;;;;;16.86;50.58;94452.81;10417926;28;20024;-70
2023/04/22 15:34:37;;;;;;;8.00;2.30;;;;;;;16.97;50.19;94453.31;10415741;28;20107;-70
2023/04/22 15:39:37;;;;;;;4.60;2.55;;;;;;;16.86;51.44;94459.03;10388629;28;21175;-71
2023/04/22 15:44:38;;;;;;;3.03;2.28;;;;;;;16.99;53.55;94460.00;10416610;28;20411;-71
2023/04/22 15:49:38;;;;;;;8.30;2.28;;;;;;;17.00;51.60;94463.53;10417459;28;20079;-71
2023/04/22 15:54:39;;;;;;;8.73;2.92;;;;;;;16.85;53.00;94471.00;10410019;28;20070;-70
2023/04/22 15:59:39;;;;;;;3.72;1.88;;;;;;;16.88;53.42;94477.72;10406843;28;20032;-71
2023/04/22 16:04:40;;;;;;;5.03;1.90;;;;;;;16.49;53.07;94490.28;10402613;28;20055;-71
2023/04/22 16:09:40;;;;;;;6.47;3.10;;;;;;;15.99;60.27;94494.13;10409582;28;20632;-71
2023/04/22 16:14:41;;;;;;;4.03;2.70;;;;;;;15.91;63.00;94494.91;10405813;28;20064;-70
2023/04/22 16:19:41;;;;;;;6.15;2.00;;;;;;;15.52;69.49;94506.16;10407624;28;20283;-70
2023/04/22 16:24:42;;;;;;;3.67;2.17;;;;;;;15.32;75.57;94510.19;10391390;28;20473;-69
2023/04/22 16:29:42;;;;;;;10.53;3.07;;;;;;;14.91;82.85;94513.06;10391284;28;20032;-71
2023/04/22 16:34:45;;;;;;;4.78;2.35;;;;;;;14.68;88.54;94521.16;10406934;28;20306;-71
2023/04/22 16:39:45;;;;;;;6.65;2.72;;;;;;;14.54;93.79;94534.66;10385284;28;20060;-69
2023/04/22 16:44:46;;;;;;;5.45;2.88;;;;;;;14.29;100.00;94535.97;10405388;28;20039;-70
2023/04/22 16:49:46;;;;;;;5.32;2.80;;;;;;;14.19;100.00;94534.28;10407781;28;20485;-72
2023/04/22 16:54:47;;;;;;;15.32;3.13;;;;;;;14.01;100.00;94534.09;10394901;28;20033;-72
2023/04/22 16:59:47;;;;;;;8.00;3.93;;;;;;;13.94;100.00;94541.78;10407067;28;20041;-72
2023/04/22 17:04:48;;;;;;;5.97;3.58;;;;;;;13.72;100.00;94545.16;10404354;28;20828;-72
2023/04/22 17:09:48;;;;;;;8.87;4.10;;;;;;;13.49;100.00;94558.53;10405350;28;20131;-72
2023/04/22 17:14:49;;;;;;;7.15;4.07;;;;;;;13.32;100.00;94560.91;10406639;28;20037;-70
2023/04/22 17:19:49;;;;;;;5.13;3.72;;;;;;;13.27;100.00;94583.41;10405831;28;20538;-70
2023/04/22 17:24:50;;;;;;;6.47;3.50;;;;;;;13.16;100.00;94588.16;10407753;28;20052;-70
2023/04/22 17:29:51;;;;;;;4.72;3.40;;;;;;;13.28;100.00;94597.69;10410199;28;20025;-71
2023/04/22 17:34:52;;;;;;;4.45;3.47;;;;;;;13.24;100.00;94599.38;10412499;28;20047;-71
2023/04/22 17:39:55;;;;;;;6.78;2.80;;;;;;;12.88;100.00;94605.28;10413577;28;20060;-71
2023/04/22 17:44:55;;;;;;;4.68;3.10;;;;;;;12.88;100.00;94613.38;10412963;28;20036;-70
2023/04/22 17:49:56;;;;;;;11.45;3.70;;;;;;;12.61;100.00;94622.88;10409992;28;20781;-71
2023/04/22 17:54:57;;;;;;;9.93;5.47;;;;;;;12.50;100.00;94619.50;10392841;28;20106;-70
2023/04/22 17:59:57;;;;;;;6.72;4.25;;;;;;;12.36;100.00;94632.84;10411442;28;20029;-71
2023/04/22 18:05:01;;;;;;;7.38;3.78;;;;;;;12.12;100.00;94628.25;10408178;28;20040;-71
2023/04/22 18:10:02;;;;;;;9.38;4.95;;;;;;;12.00;100.00;94641.34;10395257;28;20446;-70
2023/04/22 18:15:07;;;;;;;7.72;3.33;;;;;;;11.89;100.00;94645.16;10413250;28;20037;-70
2023/04/22 18:20:08;;;;;;;4.55;3.53;;;;;;;11.89;100.00;94659.44;10393659;28;20524;-70
2023/04/22 18:25:09;;;;;;;6.05;3.58;;;;;;;11.95;100.00;94661.03;10412584;28;20029;-71
2023/04/22 18:30:10;;;;;;;6.93;3.42;;;;;;;12.01;100.00;94667.16;10396239;28;20048;-71
2023/04/22 18:35:10;;;;;;;7.72;3.92;;;;;;;11.89;100.00;94666.69;10411572;28;20048;-70
2023/04/22 18:40:11;;;;;;;5.07;3.10;;;;;;;11.92;100.00;94682.31;10411009;28;20381;-70
2023/04/22 18:45:14;;;;;;;6.00;3.67;;;;;;;11.94;100.00;94685.53;10406706;28;20033;-73
2023/04/22 18:50:14;;;;;;;7.90;4.13;;;;;;;11.98;100.00;94685.78;10408235;28;20399;-74
2023/04/22 18:55:15;;;;;;;9.73;4.40;;;;;;;11.83;100.00;94675.91;10403875;28;20487;-76
2023/04/22 19:00:17;;;;;;;5.65;4.30;;;;;;;11.88;100.00;94692.03;10409821;28;20044;-73
2023/04/22 19:05:17;;;;;;;9.82;5.65;;;;;;;11.79;100.00;94695.34;10383526;28;20058;-73
2023/04/22 19:10:18;;;;;;;7.22;4.68;;;;;;;11.68;100.00;94707.28;10409209;28;20345;-71
2023/04/22 19:15:21;;;;;;;10.75;5.88;;;;;;;11.37;100.00;94717.41;10396965;28;20040;-72
2023/04/22 19:20:22;;;;;;;9.77;6.18;;;;;;;11.37;100.00;94718.25;10386012;28;20037;-73
2023/04/22 19:25:24;;;;;;;11.57;5.82;;;;;;;11.21;100.00;94722.09;10408576;28;20519;-72
2023/04/22 19:30:25;;;;;;;6.93;4.57;;;;;;;11.15;100.00;94729.38;10405783;28;20033;-73
2023/04/22 19:35:26;;;;;;;9.55;3.75;;;;;;;11.00;100.00;94727.56;10408712;28;20052;-73
2023/04/22 19:40:26;;;;;;;6.38;3.58;;;;;;;10.78;100.00;94725.22;10410639;28;20041;-76
2023/04/22 19:45:28;;;;;;;5.97;3.67;;;;;;;10.37;100.00;94731.53;10408308;28;20036;-77
2023/04/22 19:50:29;;;;;;;4.85;3.35;;;;;;;10.31;100.00;94729.91;10408316;28;20565;-75
2023/04/22 19:55:32;;;;;;;6.07;3.33;;;;;;;10.14;100.00;94726.69;10383927;28;20466;-71
2023/04/22 20:00:33;;;;;;;6.75;3.85;;;;;;;9.95;100.00;94718.38;10405377;28;20033;-73
2023/04/22 20:05:37;;;;;;;6.30;4.15;;;;;;;9.94;100.00;94706.03;10426624;28;20033;-73
2023/04/22 20:10:38;;;;;;;10.07;4.07;;;;;;;10.01;100.00;94701.22;10409332;28;20087;-74
2023/04/22 20:15:38;;;;;;;5.20;4.00;;;;;;;9.90;100.00;94705.78;10409846;28;20581;-73
2023/04/22 20:20:39;;;;;;;9.02;4.03;;;;;;;9.92;100.00;94701.75;10412410;28;20036;-74
2023/04/22 20:25:43;;;;;;;8.10;4.55;;;;;;;9.92;100.00;94711.66;10409301;28;20106;-73
2023/04/22 20:30:44;;;;;;;7.85;3.80;;;;;;;9.89;100.00;94702.28;10410020;28;20033;-74
2023/04/22 20:35:45;;;;;;;10.40;3.90;;;;;;;9.90;100.00;94700.41;10411747;28;20040;-73
2023/04/22 20:40:46;;;;;;;6.65;4.47;;;;;;;9.86;100.00;94699.31;10408574;28;20033;-73
2023/04/22 20:45:47;;;;;;;6.90;4.35;;;;;;;9.87;100.00;94701.75;10387388;28;20024;-74
2023/04/22 20:50:47;;;;;;;7.60;4.47;;;;;;;9.98;100.00;94707.91;10405770;28;20047;-73
2023/04/22 20:55:48;;;;;;;11.60;4.43;;;;;;;9.88;100.00;94700.66;10415333;28;20087;-75
2023/04/22 21:00:49;;;;;;;11.10;4.35;;;;;;;9.77;100.00;94712.50;10420572;28;20337;-74
2023/04/22 21:05:51;;;;;;;8.20;4.40;;;;;;;9.70;100.00;94698.53;10419986;28;20786;-74
2023/04/22 21:10:53;;;;;;;6.20;4.18;;;;;;;9.65;100.00;94701.22;10429578;28;20029;-74
2023/04/22 21:16:00;;;;;;;10.52;4.45;;;;;;;9.47;100.00;94703.31;10429440;28;20437;-74
2023/04/22 21:21:02;;;;;;;7.75;4.53;;;;;;;9.31;100.00;94713.25;10429172;28;20471;-74
2023/04/22 21:26:04;;;;;;;9.32;4.38;;;;;;;9.29;100.00;94693.91;10442965;28;20047;-74
2023/04/22 21:31:05;;;;;;;6.95;4.18;;;;;;;9.29;100.00;94698.47;10428964;28;20025;-73
2023/04/22 21:36:05;;;;;;;7.03;4.55;;;;;;;9.17;100.00;94698.75;10428528;28;20045;-74
2023/04/22 21:41:06;;;;;;;8.73;3.80;;;;;;;9.09;100.00;94707.28;10428466;28;20112;-74
2023/04/22 21:46:08;;;;;;;7.97;4.20;;;;;;;8.96;100.00;94704.03;10410786;28;20078;-74
2023/04/22 21:51:08;;;;;;;11.20;4.82;;;;;;;8.98;100.00;94704.56;10428272;28;20157;-73
2023/04/22 21:56:09;;;;;;;10.13;4.50;;;;;;;8.88;100.00;94709.91;10427851;28;20041;-74
2023/04/22 22:01:09;;;;;;;10.63;4.45;;;;;;;8.78;100.00;94709.88;10428166;28;20054;-74
2023/04/22 22:06:10;;;;;;;5.60;4.00;;;;;;;8.69;100.00;94714.91;10427213;28;20099;-73
2023/04/22 22:11:11;;;;;;;5.40;3.80;;;;;;;8.60;100.00;94711.94;10409510;28;20454;-73
2023/04/22 22:16:11;;;;;;;7.97;4.32;;;;;;;8.59;100.00;94707.63;10424901;28;20021;-74
2023/04/22 22:21:12;;;;;;;7.75;4.80;;;;;;;8.64;100.00;94713.03;10426683;28;20056;-73
2023/04/22 22:26:13;;;;;;;10.77;5.15;;;;;;;8.71;100.00;94723.50;10426557;28;20049;-72
2023/04/22 22:31:14;;;;;;;6.85;4.25;;;;;;;8.75;100.00;94729.13;10426870;28;20033;-74
2023/04/22 22:36:15;;;;;;;8.73;5.63;;;;;;;8.80;100.00;94729.16;10426265;28;20040;-73
2023/04/22 22:41:15;;;;;;;7.53;4.75;;;;;;;8.79;100.00;94728.38;10426481;28;20157;-73
2023/04/22 22:46:15;;;;;;;10.30;6.10;;;;;;;8.77;100.00;94727.03;10425815;28;20778;-74
2023/04/22 22:51:16;;;;;;;13.98;4.90;;;;;;;8.60;100.00;94719.97;10425776;28;20036;-73
2023/04/22 22:56:19;;;;;;;10.25;5.47;;;;;;;8.53;100.00;94719.41;10407492;28;20082;-73
2023/04/22 23:01:21;;;;;;;7.97;5.35;;;;;;;8.58;100.00;94715.94;10425213;28;20091;-74
2023/04/22 23:06:21;;;;;;;8.05;5.43;;;;;;;8.49;100.00;94716.44;10425754;28;20066;-74
2023/04/22 23:11:22;;;;;;;7.43;4.90;;;;;;;8.46;100.00;94713.50;10425420;28;20090;-74